This demonstration page uses our WeatherBlox Daily Observations layout. Learn more.

38.88101, -77.10428

Hourly Observations for August 10, 2018

Temp ( °F °C ) Dew Point ( °F °C ) Humidity (%) Winds ( mph kmh ) Pressure ( in mb ) Visibility ( mi km ) Precip ( " mm )
12:52 am 00:52 Partly Cloudy 80 26.7 72 22.2 76 76 NNE 5 7 29.91 1013 9 14.48406 0 0
1:52 am 01:52 Mostly Clear 80 26.7 68 20 67 67 Calm 29.9 1013 10 16.0934 0 0
2:52 am 02:52 Partly Cloudy 80 26.7 67 19.4 64 64 NNW 3 6 29.9 1013 10 16.0934 0 0
3:52 am 03:52 Mostly Clear 77 25 67 19.4 71 71 Calm 29.89 1012 10 16.0934 0 0
4:52 am 04:52 Mostly Clear 79 26.1 66 18.9 65 65 VRB 5 7 29.9 1013 10 16.0934 0 0
5:52 am 05:52 Mostly Clear 76 24.4 68 20 77 77 SSE 5 7 29.91 1013 10 16.0934 0 0
6:52 am 06:52 Mostly Sunny 76 24.4 67 19.4 74 74 VRB 6 9 29.91 1013 10 16.0934 0 0
7:52 am 07:52 Mostly Sunny 79 26.1 66 18.9 65 65 NW 8 13 29.93 1013 10 16.0934 0 0
8:52 am 08:52 Partly Cloudy 82 27.8 67 19.4 60 60 NNW 12 19 29.93 1014 10 16.0934 0 0
9:52 am 09:52 Partly Cloudy 84 28.9 67 19.4 57 57 NNW 12 19 29.94 1014 10 16.0934 0 0
10:52 am 10:52 Partly Cloudy 87 30.6 68 20 53 53 NW 6 9 29.94 1014 10 16.0934 0 0
11:52 am 11:52 Mostly Cloudy 88 31.1 68 20 52 52 VRB 3 6 29.94 1014 10 16.0934 0 0
12:52 pm 12:52 Mostly Cloudy 88 31.1 67 19.4 50 50 VRB 6 9 29.93 1014 10 16.0934 0 0
1:52 pm 13:52 Mostly Cloudy 89 31.7 66 18.9 47 47 S 5 7 29.91 1013 10 16.0934 0 0
2:52 pm 14:52 Mostly Cloudy 90 32.2 66 18.9 45 45 SE 6 9 29.9 1013 10 16.0934 0 0
3:52 pm 15:52 Cloudy 89 31.7 68 20 50 50 SSE 10 17 29.88 1012 10 16.0934 0 0
4:52 pm 16:52 Cloudy 92 33.3 66 18.9 43 43 W 9 15 29.87 1012 10 16.0934 0 0
5:52 pm 17:52 Mostly Cloudy 89 31.7 65 18.3 45 45 SW 8 13 29.86 1011 10 16.0934 0 0
6:52 pm 18:52 Cloudy 88 31.1 67 19.4 50 50 SSW 10 17 29.85 1011 10 16.0934 0 0
7:52 pm 19:52 Mostly Cloudy 87 30.6 67 19.4 51 51 SW 7 11 29.87 1012 10 16.0934 0 0
8:52 pm 20:52 Partly Cloudy 83 28.3 73 22.8 72 72 S 7 11 29.88 1012 10 16.0934 0 0
9:52 pm 21:52 Partly Cloudy 83 28.3 70 21.1 65 65 S 3 6 29.9 1013 8 12.87472 0 0
10:52 pm 22:52 Partly Cloudy 81 27.2 72 22.2 74 74 S 5 7 29.91 1013 10 16.0934 0 0
11:52 pm 23:52 Mostly Cloudy 80 26.7 72 22.2 76 76 S 6 9 29.91 1013 10 16.0934 0 0

Powered by AerisWeather